This is the latest recevied weather packets stored in our database for station/object KB3KAV. If no packets are shown the sender has not sent any weather packets the latest 10 day(s).
| Time | Temp. | Humidity | Pressure | Rain* | Wind** | Luminosity | Snow |
|---|---|---|---|---|---|---|---|
| 1787451614 | 16.67° C | 95% | 1041.9 hPa | 0 mm | - | 0 W/m² | - |
| 1787451010 | 17.22° C | 95% | 1042.3 hPa | 0 mm | - | 0 W/m² | - |
| 1787450406 | 17.22° C | 95% | 1042.1 hPa | 0 mm | - | 0 W/m² | - |
| 1787449803 | 17.22° C | 95% | 1042.1 hPa | 0 mm | - | 0 W/m² | - |
| 1787449199 | 17.22° C | 95% | 1042.2 hPa | 0 mm | - | 0 W/m² | - |
| 1787448595 | 17.78° C | 95% | 1042.3 hPa | 0 mm | - | 0 W/m² | - |
| 1787447991 | 17.78° C | 95% | 1042.4 hPa | 0 mm | - | 0 W/m² | - |
| 1787447391 | 17.78° C | 95% | 1042.4 hPa | 0 mm | - | 0 W/m² | - |
| 1787446789 | 17.78° C | 95% | 1042.2 hPa | 0 mm | - | 0 W/m² | - |
| 1787446185 | 18.33° C | 94% | 1041.9 hPa | 0 mm | - | 0 W/m² | - |
| 1787445583 | 18.89° C | 93% | 1041.6 hPa | 0 mm | - | 0 W/m² | - |
| 1787444979 | 18.89° C | 92% | 1041.4 hPa | 0 mm | - | 0 W/m² | - |
| 1787444377 | 20° C | 90% | 1041.4 hPa | 0 mm | - | 0 W/m² | - |
| 1787443777 | 21.11° C | 86% | 1041.5 hPa | 0 mm | - | 0 W/m² | - |
| 1787443177 | 21.11° C | 83% | 1041.6 hPa | 0 mm | - | 0 W/m² | - |
| 1787442575 | 20.56° C | 88% | 1041.7 hPa | 0 mm | - | 2 W/m² | - |
| 1787441972 | 21.67° C | 82% | 1041.6 hPa | 0 mm | - | 6 W/m² | - |
| 1787441367 | 20.56° C | 90% | 1041.5 hPa | 0 mm | - | 12 W/m² | - |
| 1787440765 | 21.11° C | 88% | 1041.8 hPa | 0 mm | - | 22 W/m² | - |
| 1787440163 | 21.67° C | 84% | 1041.7 hPa | 0 mm | - | 27 W/m² | - |
| 1787439559 | 22.22° C | 79% | 1041.9 hPa | 0 mm | - | 29 W/m² | - |
| 1787438957 | 22.78° C | 76% | 1042 hPa | 0 mm | - | 34 W/m² | - |
| 1787438356 | 23.89° C | 73% | 1042.2 hPa | 0 mm | - | 52 W/m² | - |
| 1787437752 | 23.89° C | 72% | 1042.1 hPa | 0 mm | - | 88 W/m² | - |
| 1787437150 | 24.44° C | 71% | 1041.9 hPa | 0 mm | - | 94 W/m² | - |
* Rain latest hour (hover to see other rain measurements)
** Current wind speed in m/s (hover to see current wind gust speed)